createdAt,value
2018-03-18T00:01:56.173Z,27.83
2018-03-18T00:04:23.659Z,27.30
2018-03-18T00:06:51.124Z,27.17
2018-03-18T00:09:18.613Z,27.60
2018-03-18T00:11:46.868Z,29.73
2018-03-18T00:14:14.374Z,28.10
2018-03-18T00:16:41.837Z,27.60
2018-03-18T00:19:09.306Z,30.43
2018-03-18T00:21:36.773Z,32.40
2018-03-18T00:24:04.254Z,30.40
2018-03-18T00:26:31.717Z,31.57
2018-03-18T00:28:59.200Z,29.60
2018-03-18T00:31:26.667Z,30.47
2018-03-18T00:33:54.140Z,30.50
2018-03-18T00:36:22.387Z,31.27
2018-03-18T00:38:49.860Z,31.60
2018-03-18T00:41:17.337Z,32.67
2018-03-18T00:43:44.813Z,33.10
2018-03-18T00:46:13.036Z,32.30
2018-03-18T00:48:40.535Z,30.73
2018-03-18T00:51:08.011Z,30.87
2018-03-18T00:53:35.494Z,29.93
2018-03-18T00:56:03.726Z,31.07
2018-03-18T00:58:31.192Z,29.30
2018-03-18T01:00:58.665Z,33.17
2018-03-18T01:03:26.141Z,31.10
2018-03-18T01:05:54.392Z,30.50
2018-03-18T01:08:21.858Z,29.07
2018-03-18T01:10:49.346Z,32.07
2018-03-18T01:13:16.834Z,28.63
2018-03-18T01:15:44.304Z,29.53
2018-03-18T01:18:11.779Z,26.97
2018-03-18T01:20:39.260Z,27.63
2018-03-18T01:23:06.753Z,29.90
2018-03-18T01:25:34.222Z,29.17
2018-03-18T01:28:01.697Z,30.40
2018-03-18T01:30:29.959Z,29.00
2018-03-18T01:32:57.407Z,29.03
2018-03-18T01:35:24.885Z,27.93
2018-03-18T01:37:52.356Z,29.30
2018-03-18T01:40:19.834Z,28.57
2018-03-18T01:42:48.065Z,29.70
2018-03-18T01:45:15.540Z,28.43
2018-03-18T01:47:43.021Z,28.83
2018-03-18T01:50:10.485Z,28.10
2018-03-18T01:52:37.947Z,29.03
2018-03-18T01:55:05.410Z,29.67
2018-03-18T01:57:32.890Z,28.93
2018-03-18T02:00:01.130Z,29.83
2018-03-18T02:02:28.605Z,29.23
2018-03-18T02:04:56.086Z,28.73
2018-03-18T02:07:23.555Z,29.00
2018-03-18T02:09:51.790Z,28.07
2018-03-18T02:12:20.012Z,29.20
2018-03-18T02:14:48.252Z,28.20
2018-03-18T02:17:15.971Z,27.03
2018-03-18T02:19:44.204Z,26.50
2018-03-18T02:22:11.680Z,27.60
2018-03-18T02:24:39.144Z,28.33
2018-03-18T02:27:06.655Z,28.70
2018-03-18T02:29:34.122Z,28.33
2018-03-18T02:32:01.603Z,28.30
2018-03-18T02:34:29.066Z,27.00
2018-03-18T02:36:56.535Z,27.53
2018-03-18T02:39:23.999Z,27.37
2018-03-18T02:41:51.463Z,27.20
2018-03-18T02:44:18.989Z,26.90
2018-03-18T02:46:48.424Z,26.00
2018-03-18T02:49:15.881Z,26.17
2018-03-18T02:51:43.349Z,27.27
2018-03-18T02:54:10.818Z,27.93
2018-03-18T02:56:38.291Z,27.27
2018-03-18T02:59:05.761Z,25.30
2018-03-18T03:01:34.009Z,25.80
2018-03-18T03:04:01.468Z,26.93
2018-03-18T03:06:28.940Z,26.70
2018-03-18T03:08:56.393Z,27.67
2018-03-18T03:11:23.873Z,26.20
2018-03-18T03:13:51.337Z,25.30
2018-03-18T03:16:18.800Z,26.60
2018-03-18T03:18:46.280Z,27.03
2018-03-18T03:21:14.518Z,26.23
2018-03-18T03:23:41.994Z,26.10
2018-03-18T03:26:09.470Z,25.33
2018-03-18T03:28:36.952Z,26.63
2018-03-18T03:31:05.182Z,25.30
2018-03-18T03:33:32.662Z,25.83
2018-03-18T03:36:00.135Z,27.50
2018-03-18T03:38:27.608Z,26.80
2018-03-18T03:40:55.053Z,25.47
2018-03-18T03:43:22.536Z,27.40
2018-03-18T03:45:50.763Z,28.20
2018-03-18T03:48:18.244Z,27.53
2018-03-18T03:50:45.705Z,27.90
2018-03-18T03:53:13.173Z,27.50
2018-03-18T03:55:40.629Z,26.90
2018-03-18T03:58:08.105Z,29.17
2018-03-18T04:00:35.552Z,26.50
2018-03-18T04:03:03.034Z,27.27
2018-03-18T04:05:30.484Z,28.97
2018-03-18T04:07:57.974Z,29.17
2018-03-18T04:10:25.441Z,27.30
2018-03-18T04:12:53.680Z,26.20
2018-03-18T04:15:21.160Z,26.47
2018-03-18T04:17:48.631Z,28.23
2018-03-18T04:20:16.088Z,26.70
2018-03-18T04:22:43.570Z,26.00
2018-03-18T04:25:11.046Z,27.90
2018-03-18T04:27:39.314Z,26.27
2018-03-18T04:30:06.777Z,27.67
2018-03-18T04:32:35.012Z,26.07
2018-03-18T04:35:02.502Z,27.23
2018-03-18T04:37:29.968Z,26.07
2018-03-18T04:39:57.431Z,25.30
2018-03-18T04:42:24.905Z,25.60
2018-03-18T04:44:52.391Z,24.23
2018-03-18T04:47:20.614Z,25.07
2018-03-18T04:49:48.091Z,23.47
2018-03-18T04:52:15.546Z,23.57
2018-03-18T04:54:43.063Z,25.13
2018-03-18T04:57:10.529Z,23.67
2018-03-18T04:59:37.999Z,23.87
2018-03-18T05:02:05.476Z,23.57
2018-03-18T05:04:32.951Z,23.10
2018-03-18T05:07:00.433Z,23.83
2018-03-18T05:09:27.897Z,23.47
2018-03-18T05:11:55.360Z,23.77
2018-03-18T05:14:22.822Z,23.43
2018-03-18T05:16:50.290Z,25.07
2018-03-18T05:19:18.529Z,25.83
2018-03-18T05:21:46.021Z,26.37
2018-03-18T05:24:13.495Z,23.70
2018-03-18T05:26:40.983Z,25.03
2018-03-18T05:29:09.214Z,26.20
2018-03-18T05:31:36.688Z,24.97
2018-03-18T05:34:04.426Z,25.20
2018-03-18T05:36:31.902Z,24.37
2018-03-18T05:38:59.376Z,24.73
2018-03-18T05:41:26.848Z,25.73
2018-03-18T05:43:54.309Z,24.97
2018-03-18T05:46:21.792Z,23.97
2018-03-18T05:48:50.017Z,24.80
2018-03-18T05:51:17.497Z,24.67
2018-03-18T05:53:44.961Z,24.00
2018-03-18T05:56:12.428Z,22.93
2018-03-18T05:58:39.905Z,24.63
2018-03-18T06:01:07.392Z,25.23
2018-03-18T06:03:35.622Z,24.03
2018-03-18T06:06:03.101Z,25.00
2018-03-18T06:08:30.576Z,25.17
2018-03-18T06:10:58.042Z,22.67
2018-03-18T06:13:25.500Z,24.67
2018-03-18T06:15:52.996Z,26.10
2018-03-18T06:18:21.221Z,23.50
2018-03-18T06:20:48.705Z,23.70
2018-03-18T06:23:16.170Z,22.80
2018-03-18T06:25:43.633Z,24.77
2018-03-18T06:28:11.118Z,23.97
2018-03-18T06:30:39.353Z,23.47
2018-03-18T06:33:06.819Z,23.37
2018-03-18T06:35:34.303Z,23.70
2018-03-18T06:38:01.787Z,23.10
2018-03-18T06:40:30.009Z,22.83
2018-03-18T06:42:57.487Z,23.43
2018-03-18T06:45:24.952Z,22.40
2018-03-18T06:47:52.430Z,22.93
2018-03-18T06:50:19.889Z,23.13
2018-03-18T06:52:47.357Z,23.77
2018-03-18T06:55:14.818Z,23.13
2018-03-18T06:57:42.276Z,23.80
2018-03-18T07:00:09.734Z,26.03
2018-03-18T07:02:37.217Z,24.37
2018-03-18T07:05:04.690Z,23.50
2018-03-18T07:07:32.933Z,23.63
2018-03-18T07:10:00.395Z,22.33
2018-03-18T07:12:27.865Z,23.00
2018-03-18T07:14:55.352Z,21.60
2018-03-18T07:17:23.623Z,23.20
2018-03-18T07:19:51.093Z,23.17
2018-03-18T07:22:19.386Z,23.23
2018-03-18T07:24:46.829Z,23.00
2018-03-18T07:27:14.284Z,22.70
2018-03-18T07:29:42.568Z,21.03
2018-03-18T07:32:10.817Z,22.17
2018-03-18T07:34:38.300Z,21.13
2018-03-18T07:37:05.763Z,21.77
2018-03-18T07:39:33.234Z,22.77
2018-03-18T07:42:00.702Z,22.10
2018-03-18T07:44:28.194Z,22.40
2018-03-18T07:46:55.654Z,23.03
2018-03-18T07:49:23.892Z,22.40
2018-03-18T07:51:51.353Z,21.50
2018-03-18T07:54:18.830Z,23.43
2018-03-18T07:56:46.285Z,24.07
2018-03-18T07:59:13.781Z,23.07
2018-03-18T08:01:41.245Z,22.47
2018-03-18T08:04:08.745Z,22.70
2018-03-18T08:06:36.198Z,22.93
2018-03-18T08:09:03.665Z,23.23
2018-03-18T08:11:31.133Z,22.17
2018-03-18T08:13:58.623Z,23.60
2018-03-18T08:16:26.088Z,23.27
2018-03-18T08:18:53.565Z,23.13
2018-03-18T08:21:21.800Z,22.50
2018-03-18T08:23:49.289Z,38.83
2018-03-18T08:26:16.810Z,26.07
2018-03-18T08:28:44.208Z,22.47
2018-03-18T08:31:11.681Z,23.70
2018-03-18T08:33:39.145Z,21.27
2018-03-18T08:36:06.635Z,22.23
2018-03-18T08:38:34.862Z,21.37
2018-03-18T08:41:03.104Z,21.97
2018-03-18T08:43:31.332Z,22.27
2018-03-18T08:45:58.801Z,23.43
2018-03-18T08:48:26.266Z,23.80
2018-03-18T08:50:53.748Z,24.77
2018-03-18T08:53:21.218Z,23.27
2018-03-18T08:55:49.445Z,24.37
2018-03-18T08:58:16.924Z,24.00
2018-03-18T09:00:44.393Z,23.57
2018-03-18T09:03:11.857Z,25.17
2018-03-18T09:05:39.340Z,22.90
2018-03-18T09:08:06.799Z,23.53
2018-03-18T09:10:34.265Z,23.63
2018-03-18T09:13:01.730Z,23.80
2018-03-18T09:15:29.197Z,23.60
2018-03-18T09:17:56.657Z,22.47
2018-03-18T09:20:24.127Z,23.23
2018-03-18T09:22:51.582Z,22.87
2018-03-18T09:25:19.046Z,23.33
2018-03-18T09:27:47.287Z,23.20
2018-03-18T09:30:14.810Z,22.20
2018-03-18T09:32:42.258Z,25.60
2018-03-18T09:35:10.476Z,22.70
2018-03-18T09:37:37.928Z,24.57
2018-03-18T09:40:05.395Z,24.13
2018-03-18T09:42:32.881Z,23.30
2018-03-18T09:45:00.353Z,22.73
2018-03-18T09:47:27.817Z,23.77
2018-03-18T09:49:55.273Z,22.80
2018-03-18T09:52:22.741Z,23.47
2018-03-18T09:55:03.520Z,23.03
2018-03-18T09:57:30.980Z,21.37
2018-03-18T09:59:58.437Z,21.80
2018-03-18T10:02:25.901Z,22.53
2018-03-18T10:04:53.370Z,21.37
2018-03-18T10:07:20.852Z,22.50
2018-03-18T10:09:48.303Z,22.67
2018-03-18T10:12:15.766Z,21.90
2018-03-18T10:14:43.221Z,20.60
2018-03-18T10:17:10.690Z,21.97
2018-03-18T10:19:38.171Z,20.67
2018-03-18T10:22:06.426Z,22.90
2018-03-18T10:24:33.939Z,21.37
2018-03-18T10:27:01.402Z,21.70
2018-03-18T10:29:28.920Z,21.27
2018-03-18T10:31:56.325Z,21.17
2018-03-18T10:34:23.822Z,21.20
2018-03-18T10:36:51.289Z,20.80
2018-03-18T10:39:18.761Z,21.97
2018-03-18T10:41:46.225Z,21.57
2018-03-18T10:44:13.688Z,20.30
2018-03-18T10:46:41.185Z,21.10
2018-03-18T10:49:09.421Z,20.17
2018-03-18T10:51:36.873Z,20.23
2018-03-18T10:54:04.355Z,19.93
2018-03-18T10:56:31.812Z,20.93
2018-03-18T10:58:59.293Z,20.67
2018-03-18T11:01:32.536Z,21.73
2018-03-18T11:04:05.758Z,20.90
2018-03-18T11:06:33.235Z,21.47
2018-03-18T11:09:00.717Z,20.50
2018-03-18T11:11:28.160Z,20.63
2018-03-18T11:13:55.617Z,20.60
2018-03-18T11:16:23.076Z,20.03
2018-03-18T11:18:50.555Z,20.97
2018-03-18T11:21:18.031Z,20.70
2018-03-18T11:23:46.300Z,21.40
2018-03-18T11:26:13.725Z,18.27
2018-03-18T11:28:41.208Z,20.07
2018-03-18T11:31:08.690Z,23.03
2018-03-18T11:33:36.155Z,20.53
2018-03-18T11:36:03.611Z,19.60
2018-03-18T11:38:31.829Z,19.77
2018-03-18T11:41:00.069Z,19.33
2018-03-18T11:43:27.513Z,20.77
2018-03-18T11:45:54.978Z,22.60
2018-03-18T11:48:22.428Z,21.40
2018-03-18T11:50:49.898Z,21.53
2018-03-18T11:53:17.349Z,20.10
2018-03-18T11:55:44.810Z,19.90
2018-03-18T11:58:12.275Z,20.93
2018-03-18T12:00:39.745Z,20.03
2018-03-18T12:03:07.205Z,20.17
2018-03-18T12:05:34.668Z,20.20
2018-03-18T12:08:02.162Z,20.57
2018-03-18T12:10:30.396Z,20.37
2018-03-18T12:12:57.871Z,20.40
2018-03-18T12:15:25.378Z,19.93
2018-03-18T12:17:53.597Z,20.93
2018-03-18T12:20:21.077Z,19.23
2018-03-18T12:22:48.533Z,20.90
2018-03-18T12:25:16.006Z,21.70
2018-03-18T12:27:43.457Z,20.10
2018-03-18T12:30:10.946Z,20.27
2018-03-18T12:32:38.390Z,19.03
2018-03-18T12:35:05.853Z,19.93
2018-03-18T12:37:33.316Z,20.57
2018-03-18T12:40:12.590Z,20.37
2018-03-18T12:42:52.803Z,19.90
2018-03-18T12:45:20.271Z,18.23
2018-03-18T12:47:47.743Z,20.50
2018-03-18T12:50:15.192Z,21.00
2018-03-18T12:52:42.661Z,20.03
2018-03-18T12:55:10.108Z,20.83
2018-03-18T12:57:37.606Z,20.13
2018-03-18T13:00:05.841Z,20.27
2018-03-18T13:02:33.327Z,20.27
2018-03-18T13:05:00.779Z,20.67
2018-03-18T13:07:28.244Z,20.10
2018-03-18T13:09:55.712Z,20.23
2018-03-18T13:12:23.175Z,20.60
2018-03-18T13:14:50.629Z,19.53
2018-03-18T13:17:18.110Z,19.57
2018-03-18T13:19:45.558Z,21.30
2018-03-18T13:22:13.041Z,19.67
2018-03-18T13:24:40.518Z,19.33
2018-03-18T13:27:07.953Z,20.17
2018-03-18T13:29:35.406Z,19.10
2018-03-18T13:32:02.877Z,19.10
2018-03-18T13:34:30.339Z,19.30
2018-03-18T13:36:57.826Z,19.90
2018-03-18T13:39:25.280Z,19.03
2018-03-18T13:41:54.343Z,18.33
2018-03-18T13:44:21.814Z,20.97
2018-03-18T13:46:49.297Z,18.77
2018-03-18T13:49:16.758Z,19.13
2018-03-18T13:51:44.209Z,19.57
2018-03-18T13:54:11.668Z,18.10
2018-03-18T13:56:39.131Z,19.37
2018-03-18T13:59:06.610Z,19.37
2018-03-18T14:01:34.061Z,19.27
2018-03-18T14:04:01.522Z,19.47
2018-03-18T14:06:28.972Z,20.37
2018-03-18T14:08:56.448Z,19.27
2018-03-18T14:11:23.914Z,19.10
2018-03-18T14:13:51.373Z,20.10
2018-03-18T14:16:18.835Z,18.70
2018-03-18T14:18:46.293Z,18.93
2018-03-18T14:21:13.747Z,19.20
2018-03-18T14:23:41.216Z,19.40
2018-03-18T14:26:08.668Z,19.07
2018-03-18T14:28:36.124Z,19.53
2018-03-18T14:31:03.598Z,18.47
2018-03-18T14:33:31.065Z,19.97
2018-03-18T14:35:58.534Z,20.63
2018-03-18T14:38:25.989Z,19.40
2018-03-18T14:40:53.441Z,18.93
2018-03-18T14:43:20.913Z,18.03
2018-03-18T14:45:48.380Z,18.07
2018-03-18T14:48:15.841Z,18.93
2018-03-18T14:50:43.284Z,18.37
2018-03-18T14:53:10.773Z,18.50
2018-03-18T14:55:38.224Z,18.77
2018-03-18T14:58:05.683Z,18.97
2018-03-18T15:00:33.165Z,19.10
2018-03-18T15:03:00.619Z,19.37
2018-03-18T15:05:28.090Z,19.00
2018-03-18T15:07:55.540Z,18.87
2018-03-18T15:10:23.020Z,18.20
2018-03-18T15:12:50.485Z,20.63
2018-03-18T15:15:17.963Z,20.30
2018-03-18T15:17:46.185Z,19.67
2018-03-18T15:20:13.656Z,19.40
2018-03-18T15:22:41.099Z,18.83
2018-03-18T15:25:08.567Z,18.63
2018-03-18T15:27:36.035Z,19.10
2018-03-18T15:30:03.496Z,19.43
2018-03-18T15:32:30.952Z,21.03
2018-03-18T15:34:58.422Z,19.53
2018-03-18T15:37:25.898Z,20.03
2018-03-18T15:39:53.362Z,20.67
2018-03-18T15:42:20.817Z,20.33
2018-03-18T15:44:48.278Z,20.40
2018-03-18T15:47:15.761Z,21.67
2018-03-18T15:49:43.241Z,20.37
2018-03-18T15:52:10.699Z,18.60
2018-03-18T15:54:38.169Z,19.47
2018-03-18T15:57:06.408Z,18.73
2018-03-18T15:59:33.844Z,17.90
2018-03-18T16:02:01.313Z,19.30
2018-03-18T16:04:28.772Z,19.07
2018-03-18T16:07:08.237Z,19.50
2018-03-18T16:09:35.693Z,18.40
2018-03-18T16:12:03.163Z,19.33
2018-03-18T16:14:30.617Z,19.63
2018-03-18T16:16:58.082Z,20.37
2018-03-18T16:19:25.561Z,20.43
2018-03-18T16:21:53.012Z,19.67
2018-03-18T16:24:20.479Z,18.80
2018-03-18T16:26:47.957Z,20.73
2018-03-18T16:29:27.041Z,20.97
2018-03-18T16:31:54.514Z,21.67
2018-03-18T16:34:21.966Z,21.63
2018-03-18T16:36:49.420Z,21.80
2018-03-18T16:39:16.881Z,20.87
2018-03-18T16:41:44.361Z,18.33
2018-03-18T16:44:11.844Z,18.93
2018-03-18T16:46:39.327Z,19.83
2018-03-18T16:49:06.798Z,19.23
2018-03-18T16:51:34.271Z,18.80
2018-03-18T16:54:02.510Z,19.67
2018-03-18T16:56:29.978Z,21.90
2018-03-18T16:58:57.449Z,21.40
2018-03-18T17:01:24.957Z,20.20
2018-03-18T17:03:53.148Z,19.07
2018-03-18T17:06:20.623Z,19.40
2018-03-18T17:08:48.097Z,19.37
2018-03-18T17:11:15.565Z,19.43
2018-03-18T17:13:43.037Z,18.87
2018-03-18T17:16:10.493Z,19.37
2018-03-18T17:18:37.964Z,19.77
2018-03-18T17:21:05.484Z,18.57
2018-03-18T17:23:32.958Z,19.50
2018-03-18T17:26:00.425Z,18.87
2018-03-18T17:28:27.906Z,19.23
2018-03-18T17:30:55.364Z,21.20
2018-03-18T17:33:22.824Z,19.87
2018-03-18T17:35:50.292Z,19.70
2018-03-18T17:38:17.760Z,20.10
2018-03-18T17:40:45.213Z,20.67
2018-03-18T17:43:12.689Z,21.03
2018-03-18T17:45:52.013Z,20.07
2018-03-18T17:48:31.430Z,20.63
2018-03-18T17:54:30.176Z,20.43
2018-03-18T17:56:57.635Z,20.30
2018-03-18T17:59:25.862Z,21.00
2018-03-18T18:01:53.325Z,21.27
2018-03-18T18:04:20.792Z,20.80
2018-03-18T18:06:48.258Z,19.47
2018-03-18T18:09:15.716Z,19.73
2018-03-18T18:11:43.187Z,20.50
2018-03-18T18:14:10.678Z,19.90
2018-03-18T18:16:38.913Z,20.27
2018-03-18T18:19:06.398Z,23.87
2018-03-18T18:21:33.885Z,21.40
2018-03-18T18:24:02.139Z,21.03
2018-03-18T18:26:29.604Z,19.60
2018-03-18T18:28:57.068Z,21.30
2018-03-18T18:31:24.529Z,20.60
2018-03-18T18:33:51.992Z,19.67
2018-03-18T18:36:19.452Z,19.20
2018-03-18T18:38:48.924Z,19.03
2018-03-18T18:41:16.381Z,20.00
2018-03-18T18:43:43.860Z,18.70
2018-03-18T18:46:12.077Z,20.13
2018-03-18T18:48:39.562Z,19.77
2018-03-18T18:51:07.799Z,20.27
2018-03-18T18:53:37.279Z,20.50
2018-03-18T18:56:04.777Z,20.40
2018-03-18T18:58:32.985Z,20.87
2018-03-18T19:01:01.233Z,20.67
2018-03-18T19:03:28.693Z,19.83
2018-03-18T19:05:56.157Z,20.57
2018-03-18T19:08:23.614Z,20.13
2018-03-18T19:10:51.120Z,19.83
2018-03-18T19:13:19.333Z,19.90
2018-03-18T19:15:46.804Z,19.17
2018-03-18T19:18:14.273Z,20.77
2018-03-18T19:20:41.744Z,19.70
2018-03-18T19:23:09.208Z,20.70
2018-03-18T19:25:36.680Z,21.13
2018-03-18T19:28:04.152Z,19.37
2018-03-18T19:30:31.611Z,20.30
2018-03-18T19:32:59.077Z,21.10
2018-03-18T19:35:26.555Z,21.10
2018-03-18T19:37:54.011Z,20.00
2018-03-18T19:40:21.489Z,19.73
2018-03-18T19:42:49.736Z,20.10
2018-03-18T19:45:17.204Z,20.47
2018-03-18T19:47:44.672Z,20.23
2018-03-18T19:50:12.144Z,20.23
2018-03-18T19:52:40.372Z,21.47
2018-03-18T19:55:07.842Z,20.10
2018-03-18T19:57:35.306Z,20.27
2018-03-18T20:00:02.762Z,19.20
2018-03-18T20:02:30.263Z,19.80
2018-03-18T20:04:57.724Z,19.13
2018-03-18T20:07:25.200Z,18.67
2018-03-18T20:09:52.653Z,20.33
2018-03-18T20:12:20.134Z,18.90
2018-03-18T20:14:48.387Z,18.97
2018-03-18T20:17:15.853Z,19.00
2018-03-18T20:19:43.318Z,19.80
2018-03-18T20:22:10.811Z,19.13
2018-03-18T20:24:39.042Z,19.87
2018-03-18T20:27:06.513Z,19.30
2018-03-18T20:29:33.971Z,19.10
2018-03-18T20:32:01.432Z,20.20
2018-03-18T20:34:28.884Z,18.63
2018-03-18T20:36:56.373Z,20.03
2018-03-18T20:39:23.854Z,19.63
2018-03-18T20:41:51.322Z,18.57
2018-03-18T20:44:19.549Z,19.07
2018-03-18T20:46:47.013Z,19.17
2018-03-18T20:49:14.476Z,18.20
2018-03-18T20:51:41.945Z,19.47
2018-03-18T20:54:09.435Z,18.57
2018-03-18T20:56:36.908Z,19.03
2018-03-18T20:59:04.352Z,18.47
2018-03-18T21:01:31.819Z,18.33
2018-03-18T21:03:59.274Z,17.97
2018-03-18T21:06:26.739Z,19.23
2018-03-18T21:08:54.209Z,18.83
2018-03-18T21:11:21.668Z,18.03
2018-03-18T21:13:49.137Z,19.77
2018-03-18T21:16:16.601Z,23.07
2018-03-18T21:18:44.062Z,21.33
2018-03-18T21:21:11.518Z,21.13
2018-03-18T21:23:39.001Z,20.07
2018-03-18T21:26:07.233Z,19.10
2018-03-18T21:28:34.696Z,19.00
2018-03-18T21:31:02.161Z,18.40
2018-03-18T21:33:29.649Z,19.80
2018-03-18T21:35:57.114Z,18.73
2018-03-18T21:38:24.587Z,19.43
2018-03-18T21:40:52.803Z,20.23
2018-03-18T21:43:20.279Z,18.83
2018-03-18T21:45:47.746Z,19.50
2018-03-18T21:48:15.213Z,20.37
2018-03-18T21:50:42.675Z,19.23
2018-03-18T21:53:10.145Z,19.30
2018-03-18T21:55:37.604Z,19.10
2018-03-18T21:58:05.068Z,20.10
2018-03-18T22:00:32.532Z,19.83
2018-03-18T22:02:59.985Z,19.30
2018-03-18T22:05:27.444Z,19.90
2018-03-18T22:07:54.921Z,21.07
2018-03-18T22:10:22.381Z,20.30
2018-03-18T22:12:49.839Z,20.53
2018-03-18T22:15:17.301Z,20.20
2018-03-18T22:17:44.776Z,21.23
2018-03-18T22:20:12.235Z,20.17
2018-03-18T22:22:39.692Z,18.97
2018-03-18T22:25:07.163Z,19.43
2018-03-18T22:27:34.627Z,19.73
2018-03-18T22:30:02.099Z,19.27
2018-03-18T22:32:29.577Z,18.50
2018-03-18T22:34:57.817Z,19.57
2018-03-18T22:37:25.278Z,18.90
2018-03-18T22:39:52.746Z,21.80
2018-03-18T22:42:20.210Z,20.33
2018-03-18T22:44:47.669Z,18.83
2018-03-18T22:47:15.130Z,20.53
2018-03-18T22:49:42.595Z,19.60
2018-03-18T22:52:10.061Z,19.43
2018-03-18T22:54:37.528Z,18.80
2018-03-18T22:57:04.999Z,18.83
2018-03-18T22:59:32.460Z,18.60
2018-03-18T23:01:59.921Z,19.70
2018-03-18T23:04:27.381Z,19.40
2018-03-18T23:06:54.858Z,17.93
2018-03-18T23:09:22.329Z,18.97
2018-03-18T23:11:49.796Z,20.07
2018-03-18T23:14:17.264Z,19.30
2018-03-18T23:16:44.730Z,20.30
2018-03-18T23:19:12.188Z,19.60
2018-03-18T23:21:39.663Z,20.37
2018-03-18T23:24:08.072Z,18.87
2018-03-18T23:26:35.534Z,18.20
2018-03-18T23:29:02.993Z,19.70
2018-03-18T23:31:31.226Z,20.80
2018-03-18T23:33:58.718Z,18.87
2018-03-18T23:36:26.950Z,19.23
2018-03-18T23:38:54.405Z,19.80
2018-03-18T23:41:21.868Z,18.90
2018-03-18T23:43:49.341Z,20.77
2018-03-18T23:46:16.792Z,18.80
2018-03-18T23:48:44.261Z,19.73
2018-03-18T23:51:11.729Z,20.20
2018-03-18T23:53:39.180Z,19.23
2018-03-18T23:56:06.637Z,18.10
2018-03-18T23:58:34.125Z,19.87
